createdAt,value
2023-04-26T00:00:51.690Z,1.53
2023-04-26T00:03:18.387Z,1.93
2023-04-26T00:05:45.120Z,1.90
2023-04-26T00:08:11.737Z,2.30
2023-04-26T00:10:40.302Z,1.77
2023-04-26T00:13:07.145Z,2.20
2023-04-26T00:15:33.562Z,1.60
2023-04-26T00:18:00.104Z,1.60
2023-04-26T00:20:26.591Z,1.90
2023-04-26T00:22:53.294Z,2.93
2023-04-26T00:25:19.839Z,1.83
2023-04-26T00:27:46.488Z,1.83
2023-04-26T00:30:13.413Z,2.00
2023-04-26T00:32:40.195Z,1.90
2023-04-26T00:35:07.635Z,2.47
2023-04-26T00:37:34.246Z,2.67
2023-04-26T00:40:00.706Z,2.30
2023-04-26T00:42:27.524Z,2.20
2023-04-26T00:44:57.261Z,2.00
2023-04-26T00:47:26.765Z,1.90
2023-04-26T00:49:53.374Z,2.37
2023-04-26T00:52:21.092Z,2.23
2023-04-26T00:54:49.270Z,2.97
2023-04-26T00:57:15.878Z,2.40
2023-04-26T00:59:42.465Z,2.37
2023-04-26T01:02:09.472Z,2.50
2023-04-26T01:04:37.190Z,2.30
2023-04-26T01:07:03.853Z,3.00
2023-04-26T01:09:33.089Z,2.80
2023-04-26T01:12:00.777Z,2.97
2023-04-26T01:14:28.665Z,2.73
2023-04-26T01:16:57.155Z,2.83
2023-04-26T01:19:23.814Z,2.80
2023-04-26T01:21:50.451Z,2.70
2023-04-26T01:24:16.850Z,2.83
2023-04-26T01:26:46.591Z,2.70
2023-04-26T01:29:18.784Z,3.47
2023-04-26T01:31:46.462Z,2.97
2023-04-26T01:34:13.533Z,3.10
2023-04-26T01:36:40.550Z,3.10
2023-04-26T01:39:08.683Z,2.47
2023-04-26T01:41:35.368Z,3.03
2023-04-26T01:44:02.041Z,3.23
2023-04-26T01:46:28.627Z,2.80
2023-04-26T01:48:55.413Z,2.93
2023-04-26T01:51:22.790Z,3.10
2023-04-26T01:53:49.407Z,3.03
2023-04-26T01:56:16.145Z,2.70
2023-04-26T01:58:42.825Z,3.10
2023-04-26T02:01:09.834Z,2.83
2023-04-26T02:03:37.068Z,2.87
2023-04-26T02:06:03.774Z,2.73
2023-04-26T02:08:30.415Z,2.90
2023-04-26T02:10:56.999Z,3.90
2023-04-26T02:13:23.642Z,3.03
2023-04-26T02:15:51.309Z,3.17
2023-04-26T02:18:21.760Z,3.27
2023-04-26T02:20:49.892Z,3.43
2023-04-26T02:23:16.777Z,3.20
2023-04-26T02:25:46.456Z,3.67
2023-04-26T02:28:13.183Z,3.57
2023-04-26T02:30:39.737Z,3.77
2023-04-26T02:33:07.385Z,4.30
2023-04-26T02:35:34.988Z,3.30
2023-04-26T02:38:01.532Z,2.90
2023-04-26T02:40:28.095Z,3.70
2023-04-26T02:42:55.514Z,3.47
2023-04-26T02:45:21.941Z,2.80
2023-04-26T02:47:48.431Z,3.20
2023-04-26T02:50:14.939Z,3.17
2023-04-26T02:52:41.855Z,4.07
2023-04-26T02:55:08.924Z,3.47
2023-04-26T02:57:35.430Z,3.00
2023-04-26T03:00:02.044Z,2.70
2023-04-26T03:02:28.560Z,2.60
2023-04-26T03:04:56.508Z,2.63
2023-04-26T03:07:22.936Z,3.10
2023-04-26T03:09:49.394Z,2.93
2023-04-26T03:12:17.044Z,2.07
2023-04-26T03:14:44.345Z,2.93
2023-04-26T03:17:10.780Z,2.30
2023-04-26T03:19:37.496Z,2.83
2023-04-26T03:22:04.855Z,2.50
2023-04-26T03:24:32.718Z,3.00
2023-04-26T03:27:00.036Z,2.67
2023-04-26T03:29:27.091Z,3.03
2023-04-26T03:31:53.567Z,2.90
2023-04-26T03:34:20.661Z,2.60
2023-04-26T03:36:47.533Z,2.63
2023-04-26T03:39:14.200Z,2.77
2023-04-26T03:41:41.116Z,3.27
2023-04-26T03:44:10.515Z,3.17
2023-04-26T03:46:38.382Z,2.80
2023-04-26T03:49:05.327Z,2.90
2023-04-26T03:51:32.014Z,3.37
2023-04-26T03:53:59.322Z,2.93
2023-04-26T03:56:26.192Z,2.40
2023-04-26T03:58:53.551Z,3.00
2023-04-26T04:01:20.693Z,2.87
2023-04-26T04:03:47.390Z,3.20
2023-04-26T04:06:14.992Z,3.10
2023-04-26T04:08:42.876Z,3.40
2023-04-26T04:11:09.430Z,2.67
2023-04-26T04:13:37.700Z,3.40
2023-04-26T04:16:04.833Z,2.63
2023-04-26T04:18:31.524Z,3.30
2023-04-26T04:20:58.675Z,3.20
2023-04-26T04:23:25.193Z,3.20
2023-04-26T04:25:52.587Z,4.03
2023-04-26T04:28:19.225Z,3.00
2023-04-26T04:30:46.862Z,3.70
2023-04-26T04:33:13.781Z,3.50
2023-04-26T04:35:43.362Z,2.87
2023-04-26T04:38:10.192Z,3.50
2023-04-26T04:40:37.116Z,4.27
2023-04-26T04:43:03.665Z,3.27
2023-04-26T04:45:31.484Z,2.97
2023-04-26T04:47:59.248Z,3.23
2023-04-26T04:50:26.763Z,3.20
2023-04-26T04:52:53.403Z,3.87
2023-04-26T04:55:19.906Z,3.90
2023-04-26T04:57:46.512Z,3.30
2023-04-26T05:00:14.095Z,4.20
2023-04-26T05:02:46.576Z,3.63
2023-04-26T05:05:13.433Z,3.10
2023-04-26T05:07:40.348Z,3.50
2023-04-26T05:10:09.054Z,3.57
2023-04-26T05:12:36.858Z,3.97
2023-04-26T05:15:04.417Z,3.33
2023-04-26T05:17:33.675Z,3.27
2023-04-26T05:20:09.462Z,3.47
2023-04-26T05:22:36.790Z,3.63
2023-04-26T05:25:05.108Z,3.80
2023-04-26T05:27:31.624Z,3.67
2023-04-26T05:30:15.231Z,3.30
2023-04-26T05:32:46.033Z,4.10
2023-04-26T05:35:33.868Z,3.27
2023-04-26T05:38:00.372Z,3.90
2023-04-26T05:40:27.068Z,3.63
2023-04-26T05:42:53.758Z,3.20
2023-04-26T05:45:20.359Z,2.93
2023-04-26T05:47:47.614Z,4.23
2023-04-26T05:50:14.194Z,3.53
2023-04-26T05:52:40.857Z,3.47
2023-04-26T05:55:07.727Z,3.30
2023-04-26T05:57:34.673Z,3.40
2023-04-26T06:00:01.400Z,3.93
2023-04-26T06:02:29.102Z,4.10
2023-04-26T06:04:56.254Z,3.87
2023-04-26T06:07:23.085Z,3.10
2023-04-26T06:09:49.536Z,4.10
2023-04-26T06:12:16.805Z,3.37
2023-04-26T06:14:45.080Z,3.33
2023-04-26T06:17:15.990Z,3.70
2023-04-26T06:19:42.900Z,4.20
2023-04-26T06:22:09.367Z,3.70
2023-04-26T06:24:35.769Z,3.70
2023-04-26T06:27:02.316Z,3.80
2023-04-26T06:29:32.684Z,3.80
2023-04-26T06:31:59.263Z,4.70
2023-04-26T06:34:26.032Z,4.23
2023-04-26T06:36:53.650Z,3.60
2023-04-26T06:39:22.348Z,3.63
2023-04-26T06:41:50.428Z,4.50
2023-04-26T06:44:26.206Z,3.60
2023-04-26T06:46:59.585Z,4.37
2023-04-26T06:49:26.728Z,4.50
2023-04-26T06:51:53.140Z,4.17
2023-04-26T06:54:19.979Z,3.63
2023-04-26T06:56:46.648Z,3.80
2023-04-26T06:59:13.100Z,3.30
2023-04-26T07:01:39.592Z,3.80
2023-04-26T07:04:12.799Z,3.27
2023-04-26T07:06:39.517Z,3.50
2023-04-26T07:09:06.373Z,3.87
2023-04-26T07:11:32.869Z,3.30
2023-04-26T07:13:59.324Z,2.80
2023-04-26T07:16:27.366Z,3.30
2023-04-26T07:18:54.098Z,3.40
2023-04-26T07:21:20.555Z,3.80
2023-04-26T07:23:47.100Z,2.83
2023-04-26T07:26:13.588Z,3.80
2023-04-26T07:28:40.250Z,2.90
2023-04-26T07:31:09.205Z,3.00
2023-04-26T07:33:36.885Z,3.10
2023-04-26T07:36:03.770Z,4.10
2023-04-26T07:38:30.204Z,3.40
2023-04-26T07:40:56.884Z,3.53
2023-04-26T07:43:23.332Z,3.50
2023-04-26T07:45:49.867Z,3.57
2023-04-26T07:48:16.965Z,2.50
2023-04-26T07:50:43.644Z,1.73
2023-04-26T07:53:10.102Z,2.17
2023-04-26T07:55:37.577Z,2.20
2023-04-26T07:58:04.477Z,2.03
2023-04-26T08:00:31.109Z,1.93
2023-04-26T08:02:57.718Z,1.73
2023-04-26T08:05:24.781Z,2.10
2023-04-26T08:07:51.423Z,3.00
2023-04-26T08:10:17.997Z,2.77
2023-04-26T08:12:44.434Z,2.43
2023-04-26T08:15:11.721Z,2.73
2023-04-26T08:17:38.260Z,2.80
2023-04-26T08:20:09.559Z,2.73
2023-04-26T08:22:36.303Z,3.80
2023-04-26T08:25:04.606Z,5.03
2023-04-26T08:27:31.854Z,3.80
2023-04-26T08:29:58.377Z,3.97
2023-04-26T08:32:24.899Z,3.60
2023-04-26T08:34:51.345Z,3.97
2023-04-26T08:37:17.786Z,3.97
2023-04-26T08:39:44.227Z,3.73
2023-04-26T08:42:16.029Z,4.00
2023-04-26T08:44:44.795Z,4.03
2023-04-26T08:47:27.930Z,4.63
2023-04-26T08:49:59.770Z,3.90
2023-04-26T08:52:31.005Z,3.30
2023-04-26T08:55:00.368Z,3.30
2023-04-26T08:57:27.137Z,3.80
2023-04-26T08:59:56.174Z,4.00
2023-04-26T09:02:24.257Z,3.43
2023-04-26T09:04:51.375Z,3.50
2023-04-26T09:07:26.960Z,2.50
2023-04-26T09:09:56.710Z,2.70
2023-04-26T09:12:23.117Z,2.00
2023-04-26T09:14:49.980Z,1.60
2023-04-26T09:17:29.295Z,1.37
2023-04-26T09:19:56.651Z,1.50
2023-04-26T09:22:36.137Z,1.90
2023-04-26T09:25:05.098Z,1.60
2023-04-26T09:27:33.736Z,1.80
2023-04-26T09:30:05.936Z,1.77
2023-04-26T09:32:53.963Z,1.70
2023-04-26T09:35:31.180Z,1.80
2023-04-26T09:38:02.312Z,1.70
2023-04-26T09:40:59.392Z,1.87
2023-04-26T09:43:25.789Z,1.83
2023-04-26T09:45:56.482Z,2.00
2023-04-26T09:48:30.254Z,2.30
2023-04-26T09:50:59.113Z,2.47
2023-04-26T09:53:50.893Z,2.40
2023-04-26T09:56:19.116Z,2.70
2023-04-26T09:58:52.506Z,2.63
2023-04-26T10:01:20.288Z,2.77
2023-04-26T10:03:47.350Z,2.10
2023-04-26T10:06:14.375Z,2.67
2023-04-26T10:08:41.125Z,2.13
2023-04-26T10:11:09.753Z,2.50
2023-04-26T10:13:36.313Z,2.77
2023-04-26T10:16:04.142Z,3.30
2023-04-26T10:18:31.551Z,2.60
2023-04-26T10:21:04.808Z,2.70
2023-04-26T10:23:31.970Z,2.50
2023-04-26T10:25:58.664Z,2.23
2023-04-26T10:28:40.261Z,2.40
2023-04-26T10:31:07.844Z,2.60
2023-04-26T10:33:34.330Z,3.40
2023-04-26T10:36:28.022Z,2.13
2023-04-26T10:39:21.811Z,1.90
2023-04-26T10:41:48.731Z,2.40
2023-04-26T10:44:38.897Z,1.90
2023-04-26T10:47:21.526Z,1.70
2023-04-26T10:49:48.487Z,2.20
2023-04-26T10:52:23.019Z,1.83
2023-04-26T10:54:55.212Z,2.10
2023-04-26T10:57:22.999Z,1.97
2023-04-26T11:00:13.557Z,1.83
2023-04-26T11:02:53.367Z,2.13
2023-04-26T11:05:51.509Z,2.13
2023-04-26T11:08:21.952Z,2.10
2023-04-26T11:11:04.725Z,2.00
2023-04-26T11:13:32.389Z,2.20
2023-04-26T11:16:05.016Z,1.83
2023-04-26T11:18:32.765Z,1.80
2023-04-26T11:20:59.605Z,1.90
2023-04-26T11:23:28.756Z,1.70
2023-04-26T11:26:03.523Z,2.30
2023-04-26T11:28:33.896Z,1.70
2023-04-26T11:31:02.056Z,2.03
2023-04-26T11:33:28.524Z,2.17
2023-04-26T11:35:56.139Z,1.73
2023-04-26T11:38:24.347Z,2.00
2023-04-26T11:41:02.182Z,2.30
2023-04-26T11:43:38.520Z,1.77
2023-04-26T11:46:10.019Z,2.03
2023-04-26T11:48:38.446Z,1.43
2023-04-26T11:51:07.207Z,2.00
2023-04-26T11:53:38.493Z,1.70
2023-04-26T11:56:14.383Z,1.60
2023-04-26T11:58:44.415Z,1.90
2023-04-26T12:01:10.857Z,2.23
2023-04-26T12:03:40.320Z,1.77
2023-04-26T12:06:07.208Z,1.60
2023-04-26T12:08:33.961Z,1.93
2023-04-26T12:11:02.981Z,1.73
2023-04-26T12:13:30.030Z,1.50
2023-04-26T12:15:56.617Z,1.90
2023-04-26T12:18:30.593Z,1.67
2023-04-26T12:21:01.013Z,1.57
2023-04-26T12:23:27.845Z,1.83
2023-04-26T12:25:56.436Z,1.63
2023-04-26T12:28:24.618Z,1.47
2023-04-26T12:30:51.653Z,1.33
2023-04-26T12:33:22.747Z,1.43
2023-04-26T12:35:50.621Z,1.40
2023-04-26T12:38:18.937Z,1.10
2023-04-26T12:40:45.927Z,1.40
2023-04-26T12:43:12.871Z,1.80
2023-04-26T12:45:39.620Z,1.50
2023-04-26T12:48:06.589Z,1.47
2023-04-26T12:50:33.272Z,1.50
2023-04-26T12:52:59.809Z,1.30
2023-04-26T12:55:26.699Z,2.10
2023-04-26T12:57:53.228Z,2.10
2023-04-26T13:00:21.443Z,2.10
2023-04-26T13:02:48.050Z,1.73
2023-04-26T13:05:14.552Z,1.70
2023-04-26T13:07:43.982Z,1.60
2023-04-26T13:10:12.892Z,1.53
2023-04-26T13:12:40.421Z,1.83
2023-04-26T13:15:08.324Z,2.10
2023-04-26T13:17:37.429Z,1.87
2023-04-26T13:20:07.458Z,1.83
2023-04-26T13:22:34.595Z,1.53
2023-04-26T13:25:01.160Z,1.70
2023-04-26T13:27:30.506Z,2.10
2023-04-26T13:29:58.325Z,2.20
2023-04-26T13:32:25.040Z,1.93
2023-04-26T13:34:51.774Z,1.60
2023-04-26T13:37:20.718Z,1.60
2023-04-26T13:39:47.403Z,1.73
2023-04-26T13:42:16.427Z,1.40
2023-04-26T13:44:43.548Z,1.60
2023-04-26T13:47:10.345Z,1.70
2023-04-26T13:49:37.153Z,2.20
2023-04-26T13:52:03.746Z,1.90
2023-04-26T13:54:30.457Z,2.10
2023-04-26T13:56:56.938Z,2.23
2023-04-26T13:59:23.392Z,1.73
2023-04-26T14:01:50.776Z,1.80
2023-04-26T14:04:19.334Z,2.00
2023-04-26T14:06:46.006Z,1.70
2023-04-26T14:09:13.004Z,1.67
2023-04-26T14:11:39.502Z,1.80
2023-04-26T14:14:06.210Z,2.53
2023-04-26T14:16:32.823Z,1.33
2023-04-26T14:18:59.395Z,1.97
2023-04-26T14:21:26.989Z,1.30
2023-04-26T14:23:53.383Z,2.20
2023-04-26T14:26:20.397Z,3.13
2023-04-26T14:28:47.928Z,1.90
2023-04-26T14:31:17.678Z,1.77
2023-04-26T14:33:44.232Z,2.00
2023-04-26T14:36:11.135Z,1.87
2023-04-26T14:38:37.589Z,1.90
2023-04-26T14:41:04.065Z,1.90
2023-04-26T14:43:30.498Z,1.80
2023-04-26T14:45:58.594Z,1.70
2023-04-26T14:48:25.893Z,1.80
2023-04-26T14:50:59.739Z,1.87
2023-04-26T14:53:26.457Z,1.40
2023-04-26T14:55:59.859Z,1.53
2023-04-26T14:58:27.041Z,1.73
2023-04-26T15:00:54.080Z,1.80
2023-04-26T15:03:21.147Z,1.80
2023-04-26T15:05:48.115Z,2.20
2023-04-26T15:08:14.564Z,1.67
2023-04-26T15:10:41.175Z,2.00
2023-04-26T15:13:07.757Z,2.10
2023-04-26T15:15:34.478Z,1.73
2023-04-26T15:18:01.781Z,1.80
2023-04-26T15:20:28.319Z,1.90
2023-04-26T15:22:54.761Z,1.80
2023-04-26T15:25:21.535Z,2.10
2023-04-26T15:27:50.236Z,2.03
2023-04-26T15:30:16.766Z,2.27
2023-04-26T15:32:47.287Z,1.50
2023-04-26T15:35:15.340Z,2.00
2023-04-26T15:37:41.934Z,2.10
2023-04-26T15:40:10.573Z,1.87
2023-04-26T15:42:37.475Z,1.90
2023-04-26T15:45:04.234Z,2.67
2023-04-26T15:47:30.878Z,1.80
2023-04-26T15:50:03.583Z,1.90
2023-04-26T15:52:33.190Z,2.20
2023-04-26T15:54:59.854Z,2.23
2023-04-26T15:57:26.346Z,1.80
2023-04-26T15:59:53.068Z,2.47
2023-04-26T16:02:19.576Z,1.80
2023-04-26T16:04:46.499Z,2.30
2023-04-26T16:07:13.050Z,2.40
2023-04-26T16:09:39.745Z,3.37
2023-04-26T16:12:06.479Z,1.90
2023-04-26T16:14:33.099Z,2.43
2023-04-26T16:17:01.420Z,2.20
2023-04-26T16:19:27.933Z,2.13
2023-04-26T16:21:54.392Z,2.10
2023-04-26T16:24:20.976Z,1.87
2023-04-26T16:26:47.421Z,2.60
2023-04-26T16:29:14.781Z,2.10
2023-04-26T16:31:41.373Z,2.20
2023-04-26T16:34:07.908Z,1.97
2023-04-26T16:36:35.416Z,2.00
2023-04-26T16:39:02.247Z,2.07
2023-04-26T16:41:28.787Z,2.03
2023-04-26T16:43:55.968Z,2.10
2023-04-26T16:46:22.504Z,2.50
2023-04-26T16:48:49.078Z,2.10
2023-04-26T16:51:15.736Z,2.00
2023-04-26T16:53:42.439Z,2.83
2023-04-26T16:56:09.352Z,2.70
2023-04-26T16:58:35.976Z,2.30
2023-04-26T17:01:02.398Z,2.20
2023-04-26T17:03:29.028Z,2.10
2023-04-26T17:05:55.607Z,2.40
2023-04-26T17:08:22.181Z,1.80
2023-04-26T17:10:48.876Z,1.57
2023-04-26T17:13:15.552Z,3.00
2023-04-26T17:15:42.513Z,2.03
2023-04-26T17:18:09.831Z,2.10
2023-04-26T17:20:36.532Z,1.60
2023-04-26T17:23:04.257Z,2.10
2023-04-26T17:25:30.971Z,2.03
2023-04-26T17:27:57.898Z,1.73
2023-04-26T17:30:24.454Z,2.07
2023-04-26T17:32:51.396Z,1.70
2023-04-26T17:35:17.933Z,3.93
2023-04-26T17:37:49.711Z,2.33
2023-04-26T17:40:17.226Z,1.90
2023-04-26T17:42:44.325Z,2.20
2023-04-26T17:45:13.609Z,2.10
2023-04-26T17:47:41.526Z,2.00
2023-04-26T17:50:09.072Z,1.93
2023-04-26T17:52:35.841Z,2.67
2023-04-26T17:55:02.504Z,2.00
2023-04-26T17:57:29.195Z,2.00
2023-04-26T17:59:55.685Z,2.90
2023-04-26T18:02:22.326Z,2.50
2023-04-26T18:04:49.091Z,2.27
2023-04-26T18:07:15.822Z,2.77
2023-04-26T18:09:42.274Z,2.37
2023-04-26T18:12:08.990Z,1.90
2023-04-26T18:14:35.677Z,3.00
2023-04-26T18:17:04.257Z,2.80
2023-04-26T18:19:30.810Z,2.50
2023-04-26T18:21:57.482Z,3.13
2023-04-26T18:24:24.003Z,2.50
2023-04-26T18:26:50.602Z,2.60
2023-04-26T18:29:17.064Z,2.47
2023-04-26T18:31:43.840Z,2.43
2023-04-26T18:34:11.349Z,2.17
2023-04-26T18:36:37.821Z,3.07
2023-04-26T18:39:04.608Z,2.70
2023-04-26T18:41:31.042Z,4.00
2023-04-26T18:43:57.466Z,2.50
2023-04-26T18:46:24.129Z,3.63
2023-04-26T18:48:50.650Z,2.80
2023-04-26T18:51:17.332Z,2.90
2023-04-26T18:53:44.496Z,3.23
2023-04-26T18:56:11.124Z,2.40
2023-04-26T18:58:37.584Z,3.40
2023-04-26T19:01:04.202Z,3.47
2023-04-26T19:03:30.774Z,2.60
2023-04-26T19:05:57.332Z,3.80
2023-04-26T19:08:25.346Z,2.93
2023-04-26T19:10:51.962Z,2.97
2023-04-26T19:13:19.090Z,2.77
2023-04-26T19:15:45.877Z,2.87
2023-04-26T19:18:12.549Z,2.93
2023-04-26T19:20:39.064Z,3.77
2023-04-26T19:23:06.189Z,3.57
2023-04-26T19:25:32.685Z,4.47
2023-04-26T19:27:59.522Z,4.13
2023-04-26T19:30:26.135Z,3.70
2023-04-26T19:32:52.771Z,4.03
2023-04-26T19:35:19.250Z,3.03
2023-04-26T19:37:45.901Z,3.63
2023-04-26T19:40:12.321Z,2.60
2023-04-26T19:42:38.937Z,3.30
2023-04-26T19:45:06.272Z,3.87
2023-04-26T19:47:32.995Z,3.80
2023-04-26T19:49:59.688Z,3.80
2023-04-26T19:52:26.627Z,3.17
2023-04-26T19:54:54.230Z,2.77
2023-04-26T19:57:21.985Z,2.90
2023-04-26T19:59:48.409Z,2.70
2023-04-26T20:02:15.194Z,2.47
2023-04-26T20:04:41.705Z,3.47
2023-04-26T20:07:08.365Z,2.27
2023-04-26T20:09:35.879Z,2.50
2023-04-26T20:12:03.147Z,3.13
2023-04-26T20:14:30.410Z,2.70
2023-04-26T20:16:57.207Z,2.80
2023-04-26T20:19:23.738Z,2.40
2023-04-26T20:21:50.222Z,3.10
2023-04-26T20:24:17.093Z,2.80
2023-04-26T20:26:43.957Z,3.00
2023-04-26T20:29:10.396Z,3.00
2023-04-26T20:31:36.837Z,2.63
2023-04-26T20:34:03.292Z,3.53
2023-04-26T20:36:29.905Z,2.60
2023-04-26T20:38:56.569Z,2.53
2023-04-26T20:41:23.285Z,2.73
2023-04-26T20:43:49.746Z,3.27
2023-04-26T20:46:16.377Z,3.30
2023-04-26T20:48:42.817Z,3.27
2023-04-26T20:51:09.394Z,3.23
2023-04-26T20:53:36.271Z,2.80
2023-04-26T20:56:03.505Z,2.77
2023-04-26T20:58:30.167Z,2.90
2023-04-26T21:00:56.741Z,3.43
2023-04-26T21:03:23.694Z,2.73
2023-04-26T21:05:50.428Z,2.97
2023-04-26T21:08:16.878Z,2.70
2023-04-26T21:10:43.437Z,3.83
2023-04-26T21:13:09.828Z,3.10
2023-04-26T21:15:36.500Z,3.37
2023-04-26T21:18:03.186Z,3.37
2023-04-26T21:20:29.811Z,5.47
2023-04-26T21:22:56.230Z,5.37
2023-04-26T21:25:22.936Z,4.77
2023-04-26T21:27:51.174Z,4.13
2023-04-26T21:30:17.879Z,4.03
2023-04-26T21:32:44.405Z,3.83
2023-04-26T21:35:11.043Z,3.10
2023-04-26T21:37:37.712Z,2.90
2023-04-26T21:40:05.057Z,3.20
2023-04-26T21:42:31.758Z,2.70
2023-04-26T21:44:58.342Z,2.90
2023-04-26T21:47:24.810Z,3.30
2023-04-26T21:49:51.514Z,2.83
2023-04-26T21:52:18.852Z,3.00
2023-04-26T21:54:45.401Z,2.97
2023-04-26T21:57:11.972Z,3.90
2023-04-26T21:59:42.172Z,3.40
2023-04-26T22:02:08.696Z,3.13
2023-04-26T22:04:35.287Z,2.90
2023-04-26T22:07:02.295Z,2.93
2023-04-26T22:09:28.846Z,2.90
2023-04-26T22:11:55.299Z,3.80
2023-04-26T22:14:22.035Z,2.80
2023-04-26T22:16:48.535Z,2.70
2023-04-26T22:19:15.299Z,2.90
2023-04-26T22:21:41.793Z,2.90
2023-04-26T22:24:08.539Z,3.60
2023-04-26T22:26:34.966Z,2.87
2023-04-26T22:29:01.732Z,3.53
2023-04-26T22:31:28.260Z,3.13
2023-04-26T22:33:54.947Z,4.00
2023-04-26T22:36:21.409Z,3.83
2023-04-26T22:38:47.833Z,3.73
2023-04-26T22:41:14.253Z,4.00
2023-04-26T22:43:41.560Z,3.20
2023-04-26T22:46:08.089Z,3.33
2023-04-26T22:48:34.604Z,3.03
2023-04-26T22:51:01.365Z,3.60
2023-04-26T22:53:27.763Z,3.40
2023-04-26T22:55:54.211Z,3.53
2023-04-26T22:58:20.782Z,3.57
2023-04-26T23:00:47.465Z,3.10
2023-04-26T23:03:13.998Z,3.93
2023-04-26T23:05:40.530Z,3.07
2023-04-26T23:08:06.985Z,3.47
2023-04-26T23:10:33.695Z,2.90
2023-04-26T23:13:00.275Z,3.40
2023-04-26T23:15:27.020Z,3.00
2023-04-26T23:17:53.877Z,2.80
2023-04-26T23:20:20.652Z,3.20
2023-04-26T23:22:47.068Z,3.43
2023-04-26T23:25:13.629Z,3.13
2023-04-26T23:27:40.063Z,2.90
2023-04-26T23:30:07.476Z,2.77
2023-04-26T23:32:35.190Z,3.20
2023-04-26T23:35:01.670Z,2.50
2023-04-26T23:37:29.115Z,2.63
2023-04-26T23:39:55.792Z,3.50
2023-04-26T23:42:22.255Z,2.50
2023-04-26T23:44:48.711Z,3.50
2023-04-26T23:47:15.116Z,3.07
2023-04-26T23:49:41.885Z,3.23
2023-04-26T23:52:08.297Z,3.30
2023-04-26T23:54:34.794Z,3.00
2023-04-26T23:57:01.890Z,3.70
2023-04-26T23:59:28.622Z,3.70
